createdAt,value
2022-10-30T00:01:17.142Z,25.75
2022-10-30T00:03:44.973Z,24.23
2022-10-30T00:06:12.969Z,24.05
2022-10-30T00:08:40.310Z,24.33
2022-10-30T00:11:14.547Z,26.63
2022-10-30T00:13:47.049Z,26.45
2022-10-30T00:16:14.584Z,25.60
2022-10-30T00:18:44.746Z,26.23
2022-10-30T00:21:15.942Z,26.85
2022-10-30T00:23:50.517Z,27.25
2022-10-30T00:26:20.316Z,29.15
2022-10-30T00:28:55.895Z,27.80
2022-10-30T00:31:23.764Z,27.65
2022-10-30T00:33:55.399Z,27.45
2022-10-30T00:36:23.694Z,26.17
2022-10-30T00:38:50.976Z,26.67
2022-10-30T00:41:22.591Z,26.27
2022-10-30T00:43:50.966Z,25.77
2022-10-30T00:46:33.277Z,27.52
2022-10-30T00:49:16.737Z,25.27
2022-10-30T00:51:52.631Z,27.17
2022-10-30T00:54:22.691Z,27.48
2022-10-30T00:56:51.717Z,30.10
2022-10-30T00:59:30.542Z,29.00
2022-10-30T01:01:58.983Z,29.67
2022-10-30T01:04:30.160Z,32.08
2022-10-30T01:07:05.740Z,30.98
2022-10-30T01:09:34.161Z,32.97
2022-10-30T01:12:01.470Z,31.17
2022-10-30T01:14:29.074Z,31.55
2022-10-30T01:17:27.185Z,36.28
2022-10-30T01:20:18.951Z,33.25
2022-10-30T01:23:14.026Z,32.47
2022-10-30T01:26:09.888Z,31.70
2022-10-30T01:29:07.830Z,30.73
2022-10-30T01:31:50.072Z,29.58
2022-10-30T01:35:05.597Z,30.75
2022-10-30T01:38:02.475Z,32.45
2022-10-30T01:40:48.471Z,31.25
2022-10-30T01:43:16.000Z,33.08
2022-10-30T01:46:07.166Z,34.63
2022-10-30T01:49:07.494Z,32.15
2022-10-30T01:52:15.475Z,36.28
2022-10-30T01:54:57.120Z,34.33
2022-10-30T01:57:57.784Z,35.50
2022-10-30T02:00:25.221Z,36.03
2022-10-30T02:02:53.107Z,32.15
2022-10-30T02:05:47.687Z,33.30
2022-10-30T02:08:15.257Z,33.28
2022-10-30T02:10:47.092Z,32.65
2022-10-30T02:13:15.064Z,33.35
2022-10-30T02:15:44.702Z,32.45
2022-10-30T02:18:12.100Z,32.85
2022-10-30T02:20:39.712Z,34.25
2022-10-30T02:23:09.096Z,36.05
2022-10-30T02:25:36.831Z,32.95
2022-10-30T02:28:04.342Z,34.78
2022-10-30T02:30:31.891Z,33.97
2022-10-30T02:32:59.575Z,30.92
2022-10-30T02:35:27.172Z,33.75
2022-10-30T02:37:54.954Z,32.70
2022-10-30T02:40:22.318Z,34.80
2022-10-30T02:42:55.847Z,33.38
2022-10-30T02:45:23.574Z,33.28
2022-10-30T02:47:50.977Z,32.95
2022-10-30T02:50:18.200Z,31.48
2022-10-30T02:52:45.858Z,30.35
2022-10-30T02:55:13.267Z,29.92
2022-10-30T02:57:40.468Z,31.08
2022-10-30T03:00:08.832Z,29.85
2022-10-30T03:02:36.185Z,29.02
2022-10-30T03:05:03.452Z,31.02
2022-10-30T03:07:30.884Z,30.65
2022-10-30T03:09:58.057Z,30.92
2022-10-30T03:12:25.290Z,27.73
2022-10-30T03:14:52.724Z,29.73
2022-10-30T03:17:19.950Z,30.67
2022-10-30T03:19:47.134Z,29.33
2022-10-30T03:22:14.533Z,26.73
2022-10-30T03:24:41.755Z,31.63
2022-10-30T03:27:09.207Z,26.83
2022-10-30T03:29:36.398Z,28.67
2022-10-30T03:32:03.772Z,27.08
2022-10-30T03:34:31.244Z,27.48
2022-10-30T03:36:58.481Z,29.00
2022-10-30T03:39:25.714Z,25.58
2022-10-30T03:41:53.264Z,27.17
2022-10-30T03:44:20.399Z,26.00
2022-10-30T03:46:47.601Z,28.40
2022-10-30T03:49:14.950Z,26.85
2022-10-30T03:51:42.199Z,28.27
2022-10-30T03:54:09.341Z,28.05
2022-10-30T03:56:36.797Z,30.25
2022-10-30T03:59:04.014Z,30.80
2022-10-30T04:01:31.303Z,27.85
2022-10-30T04:03:58.857Z,30.65
2022-10-30T04:06:26.045Z,28.52
2022-10-30T04:08:55.722Z,26.88
2022-10-30T04:11:23.124Z,29.00
2022-10-30T04:13:50.435Z,29.67
2022-10-30T04:16:17.691Z,29.05
2022-10-30T04:18:45.108Z,29.90
2022-10-30T04:21:12.284Z,28.25
2022-10-30T04:23:39.511Z,28.70
2022-10-30T04:26:07.071Z,31.10
2022-10-30T04:28:34.258Z,31.98
2022-10-30T04:31:01.433Z,31.80
2022-10-30T04:33:28.939Z,28.75
2022-10-30T04:35:56.262Z,31.90
2022-10-30T04:38:23.438Z,33.75
2022-10-30T04:40:50.870Z,31.30
2022-10-30T04:43:18.166Z,30.98
2022-10-30T04:45:45.418Z,32.65
2022-10-30T04:48:17.064Z,33.50
2022-10-30T04:50:44.881Z,34.58
2022-10-30T04:53:19.043Z,33.25
2022-10-30T04:55:46.878Z,31.35
2022-10-30T04:58:15.049Z,33.35
2022-10-30T05:00:42.451Z,33.88
2022-10-30T05:03:19.879Z,34.50
2022-10-30T05:05:55.740Z,31.70
2022-10-30T05:08:23.195Z,35.47
2022-10-30T05:10:50.397Z,32.83
2022-10-30T05:13:17.561Z,35.20
2022-10-30T05:15:45.140Z,37.08
2022-10-30T05:18:12.658Z,32.30
2022-10-30T05:20:40.282Z,31.40
2022-10-30T05:23:07.722Z,31.92
2022-10-30T05:25:35.646Z,32.13
2022-10-30T05:28:06.371Z,33.85
2022-10-30T05:30:36.052Z,33.35
2022-10-30T05:33:09.644Z,30.80
2022-10-30T05:35:37.956Z,33.92
2022-10-30T05:38:07.363Z,31.60
2022-10-30T05:40:35.955Z,33.78
2022-10-30T05:43:05.893Z,32.72
2022-10-30T05:45:33.233Z,35.78
2022-10-30T05:48:04.994Z,33.90
2022-10-30T05:50:32.998Z,37.15
2022-10-30T05:53:03.931Z,33.95
2022-10-30T05:55:31.983Z,37.90
2022-10-30T05:58:05.510Z,36.92
2022-10-30T06:00:36.606Z,32.17
2022-10-30T06:03:07.976Z,36.72
2022-10-30T06:05:37.293Z,32.50
2022-10-30T06:08:06.463Z,35.67
2022-10-30T06:10:34.126Z,37.22
2022-10-30T06:13:05.308Z,39.00
2022-10-30T06:15:33.476Z,33.53
2022-10-30T06:18:01.528Z,32.80
2022-10-30T06:20:30.935Z,36.72
2022-10-30T06:23:05.501Z,34.53
2022-10-30T06:25:40.793Z,35.97
2022-10-30T06:28:10.575Z,36.63
2022-10-30T06:30:38.152Z,37.75
2022-10-30T06:33:06.289Z,34.22
2022-10-30T06:35:33.452Z,36.65
2022-10-30T06:38:00.933Z,37.92
2022-10-30T06:40:32.310Z,33.67
2022-10-30T06:42:59.861Z,32.63
2022-10-30T06:45:27.570Z,34.47
2022-10-30T06:47:54.800Z,35.65
2022-10-30T06:50:24.258Z,36.65
2022-10-30T06:52:51.889Z,33.05
2022-10-30T06:55:19.204Z,33.05
2022-10-30T06:57:46.643Z,36.53
2022-10-30T07:00:15.183Z,33.22
2022-10-30T07:02:42.695Z,33.88
2022-10-30T07:05:10.144Z,34.17
2022-10-30T07:07:37.317Z,36.75
2022-10-30T07:10:04.954Z,34.05
2022-10-30T07:12:32.422Z,29.55
2022-10-30T07:14:59.664Z,33.90
2022-10-30T07:17:26.905Z,33.25
2022-10-30T07:20:00.213Z,33.60
2022-10-30T07:22:27.503Z,33.05
2022-10-30T07:24:54.927Z,35.65
2022-10-30T07:27:22.558Z,30.38
2022-10-30T07:29:49.718Z,31.50
2022-10-30T07:32:17.136Z,31.20
2022-10-30T07:34:44.437Z,32.92
2022-10-30T07:37:11.788Z,34.00
2022-10-30T07:39:39.171Z,33.72
2022-10-30T07:42:06.472Z,33.65
2022-10-30T07:44:33.622Z,33.08
2022-10-30T07:47:01.454Z,31.75
2022-10-30T07:49:30.264Z,30.15
2022-10-30T07:51:57.411Z,29.67
2022-10-30T07:54:24.924Z,29.00
2022-10-30T07:56:52.140Z,28.27
2022-10-30T07:59:19.395Z,29.33
2022-10-30T08:01:46.910Z,29.35
2022-10-30T08:04:14.333Z,27.02
2022-10-30T08:06:41.702Z,24.90
2022-10-30T08:09:09.997Z,22.65
2022-10-30T08:11:37.353Z,24.50
2022-10-30T08:14:05.116Z,26.20
2022-10-30T08:16:32.427Z,21.65
2022-10-30T08:18:59.987Z,21.50
2022-10-30T08:21:27.619Z,21.00
2022-10-30T08:23:54.782Z,20.05
2022-10-30T08:26:22.184Z,20.73
2022-10-30T08:28:49.414Z,18.85
2022-10-30T08:31:16.830Z,19.05
2022-10-30T08:33:45.728Z,18.38
2022-10-30T08:36:13.162Z,17.52
2022-10-30T08:38:40.297Z,18.90
2022-10-30T08:41:07.387Z,19.00
2022-10-30T08:43:34.878Z,16.17
2022-10-30T08:46:02.273Z,16.23
2022-10-30T08:48:29.738Z,16.55
2022-10-30T08:51:03.210Z,15.13
2022-10-30T08:53:30.705Z,15.80
2022-10-30T08:55:57.878Z,14.13
2022-10-30T08:58:25.325Z,16.33
2022-10-30T09:00:54.889Z,14.00
2022-10-30T09:03:26.068Z,15.52
2022-10-30T09:05:53.278Z,15.65
2022-10-30T09:08:20.427Z,14.10
2022-10-30T09:10:47.899Z,13.57
2022-10-30T09:13:15.138Z,12.00
2022-10-30T09:15:43.547Z,11.68
2022-10-30T09:18:10.876Z,13.07
2022-10-30T09:20:38.629Z,11.40
2022-10-30T09:23:05.817Z,13.10
2022-10-30T09:25:33.491Z,11.77
2022-10-30T09:28:00.732Z,12.63
2022-10-30T09:30:28.066Z,12.02
2022-10-30T09:33:02.866Z,12.80
2022-10-30T09:35:31.137Z,12.70
2022-10-30T09:37:58.900Z,15.23
2022-10-30T09:41:10.487Z,12.18
2022-10-30T09:44:10.569Z,12.63
2022-10-30T09:47:02.200Z,14.45
2022-10-30T09:49:42.379Z,12.68
2022-10-30T09:52:36.747Z,12.43
2022-10-30T09:55:27.744Z,12.70
2022-10-30T09:58:32.032Z,14.60
2022-10-30T10:01:07.332Z,13.85
2022-10-30T10:03:58.702Z,14.15
2022-10-30T10:06:27.280Z,14.13
2022-10-30T10:09:19.761Z,15.13
2022-10-30T10:11:56.132Z,16.05
2022-10-30T10:14:40.821Z,15.18
2022-10-30T10:17:28.417Z,13.38
2022-10-30T10:19:59.565Z,12.88
2022-10-30T10:22:50.792Z,12.55
2022-10-30T10:25:20.977Z,12.05
2022-10-30T10:28:36.517Z,13.82
2022-10-30T10:31:42.864Z,11.45
2022-10-30T10:34:27.594Z,11.10
2022-10-30T10:37:17.915Z,10.90
2022-10-30T10:40:35.157Z,10.95
2022-10-30T10:43:23.481Z,12.20
2022-10-30T10:45:59.500Z,11.57
2022-10-30T10:48:32.490Z,10.73
2022-10-30T10:51:10.541Z,10.40
2022-10-30T10:53:53.311Z,10.23
2022-10-30T10:56:39.533Z,9.85
2022-10-30T10:59:32.052Z,9.10
2022-10-30T11:02:20.825Z,15.35
2022-10-30T11:05:02.818Z,9.15
2022-10-30T11:07:35.938Z,9.85
2022-10-30T11:10:13.452Z,11.95
2022-10-30T11:12:42.773Z,9.60
2022-10-30T11:15:42.190Z,9.73
2022-10-30T11:18:10.773Z,9.90
2022-10-30T11:21:17.599Z,11.20
2022-10-30T11:23:48.142Z,11.05
2022-10-30T11:26:18.348Z,11.77
2022-10-30T11:29:04.204Z,10.40
2022-10-30T11:31:40.144Z,10.07
2022-10-30T11:34:24.813Z,11.05
2022-10-30T11:36:54.522Z,11.02
2022-10-30T11:39:23.515Z,10.48
2022-10-30T11:41:58.953Z,10.60
2022-10-30T11:44:50.667Z,9.93
2022-10-30T11:47:25.076Z,11.38
2022-10-30T11:49:58.794Z,11.23
2022-10-30T11:52:27.497Z,10.20
2022-10-30T11:55:01.365Z,10.65
2022-10-30T11:57:37.100Z,9.93
2022-10-30T12:00:14.461Z,9.30
2022-10-30T12:02:46.078Z,9.57
2022-10-30T12:05:41.642Z,9.40
2022-10-30T12:08:16.357Z,8.60
2022-10-30T12:10:56.325Z,9.70
2022-10-30T12:13:26.078Z,10.00
2022-10-30T12:16:18.785Z,9.25
2022-10-30T12:19:00.120Z,9.68
2022-10-30T12:21:34.959Z,8.63
2022-10-30T12:24:07.374Z,8.70
2022-10-30T12:26:37.922Z,8.95
2022-10-30T12:29:15.618Z,8.10
2022-10-30T12:32:08.026Z,9.50
2022-10-30T12:34:50.630Z,9.30
2022-10-30T12:37:23.622Z,8.82
2022-10-30T12:40:18.866Z,9.20
2022-10-30T12:43:08.537Z,8.93
2022-10-30T12:45:46.314Z,9.35
2022-10-30T12:48:33.974Z,8.75
2022-10-30T12:51:18.366Z,9.23
2022-10-30T12:53:58.679Z,9.60
2022-10-30T12:56:36.027Z,8.68
2022-10-30T12:59:34.911Z,9.07
2022-10-30T13:02:12.653Z,9.25
2022-10-30T13:04:47.853Z,7.85
2022-10-30T13:07:41.666Z,8.55
2022-10-30T13:10:38.720Z,8.63
2022-10-30T13:13:23.379Z,8.75
2022-10-30T13:15:57.906Z,8.93
2022-10-30T13:18:27.410Z,8.77
2022-10-30T13:21:21.996Z,7.55
2022-10-30T13:24:11.608Z,8.00
2022-10-30T13:27:02.430Z,7.55
2022-10-30T13:29:39.730Z,7.78
2022-10-30T13:32:53.538Z,7.38
2022-10-30T13:35:54.860Z,7.80
2022-10-30T13:38:57.225Z,7.70
2022-10-30T13:41:45.200Z,6.90
2022-10-30T13:44:30.555Z,7.72
2022-10-30T13:47:31.961Z,9.20
2022-10-30T13:50:15.276Z,8.30
2022-10-30T13:52:53.583Z,8.05
2022-10-30T13:55:31.241Z,7.60
2022-10-30T13:58:28.484Z,8.80
2022-10-30T14:01:01.256Z,7.93
2022-10-30T14:03:53.514Z,7.05
2022-10-30T14:06:51.952Z,7.40
2022-10-30T14:10:02.088Z,7.07
2022-10-30T14:13:07.791Z,7.10
2022-10-30T14:15:42.612Z,7.57
2022-10-30T14:18:12.702Z,7.40
2022-10-30T14:20:49.457Z,7.38
2022-10-30T14:23:45.592Z,7.60
2022-10-30T14:26:15.193Z,7.90
2022-10-30T14:28:45.289Z,8.30
2022-10-30T14:31:17.608Z,7.63
2022-10-30T14:33:54.250Z,7.53
2022-10-30T14:36:34.720Z,7.50
2022-10-30T14:39:10.986Z,7.90
2022-10-30T14:42:10.380Z,8.07
2022-10-30T14:45:18.426Z,7.32
2022-10-30T14:47:56.532Z,8.88
2022-10-30T14:50:26.442Z,11.18
2022-10-30T14:53:41.365Z,8.65
2022-10-30T14:56:26.345Z,9.95
2022-10-30T14:59:34.153Z,8.85
2022-10-30T15:02:35.537Z,9.85
2022-10-30T15:06:02.392Z,8.60
2022-10-30T15:08:42.779Z,9.23
2022-10-30T15:11:37.005Z,9.27
2022-10-30T15:14:21.696Z,9.38
2022-10-30T15:16:54.186Z,9.55
2022-10-30T15:19:24.810Z,9.27
2022-10-30T15:21:55.947Z,8.95
2022-10-30T15:24:32.103Z,9.13
2022-10-30T15:27:02.569Z,8.90
2022-10-30T15:29:36.891Z,10.13
2022-10-30T15:32:24.745Z,10.45
2022-10-30T15:35:04.739Z,10.00
2022-10-30T15:37:32.674Z,9.55
2022-10-30T15:40:19.847Z,9.07
2022-10-30T15:42:50.500Z,9.20
2022-10-30T15:45:41.623Z,9.20
2022-10-30T15:48:28.248Z,9.30
2022-10-30T15:51:06.836Z,8.05
2022-10-30T15:53:59.834Z,8.73
2022-10-30T15:56:29.137Z,9.40
2022-10-30T15:59:05.994Z,10.45
2022-10-30T16:01:45.390Z,10.00
2022-10-30T16:04:19.376Z,10.27
2022-10-30T16:07:24.880Z,10.43
2022-10-30T16:10:02.854Z,10.98
2022-10-30T16:12:34.491Z,9.75
2022-10-30T16:15:17.715Z,10.82
2022-10-30T16:17:45.004Z,12.02
2022-10-30T16:20:20.000Z,12.27
2022-10-30T16:22:47.702Z,11.75
2022-10-30T16:25:17.592Z,10.77
2022-10-30T16:27:46.166Z,11.18
2022-10-30T16:30:16.245Z,12.63
2022-10-30T16:32:55.636Z,12.20
2022-10-30T16:35:25.308Z,12.00
2022-10-30T16:37:54.803Z,12.52
2022-10-30T16:40:28.119Z,12.15
2022-10-30T16:43:00.182Z,11.73
2022-10-30T16:45:36.398Z,13.35
2022-10-30T16:50:45.163Z,12.82
2022-10-30T16:53:22.845Z,13.48
2022-10-30T16:55:51.700Z,12.90
2022-10-30T16:58:24.332Z,13.57
2022-10-30T17:01:02.319Z,13.57
2022-10-30T17:03:39.078Z,13.50
2022-10-30T17:06:27.357Z,12.38
2022-10-30T17:08:59.769Z,12.18
2022-10-30T17:12:01.547Z,13.35
2022-10-30T17:14:29.045Z,12.73
2022-10-30T17:17:00.291Z,13.85
2022-10-30T17:19:30.732Z,12.75
2022-10-30T17:22:17.181Z,12.10
2022-10-30T17:24:45.193Z,12.40
2022-10-30T17:27:47.431Z,13.48
2022-10-30T17:30:32.568Z,14.95
2022-10-30T17:33:02.439Z,17.00
2022-10-30T17:35:30.314Z,21.33
2022-10-30T17:37:59.905Z,16.48
2022-10-30T17:40:30.337Z,13.40
2022-10-30T17:42:57.574Z,12.00
2022-10-30T17:45:25.038Z,11.10
2022-10-30T17:47:52.218Z,15.35
2022-10-30T17:50:19.638Z,15.68
2022-10-30T17:52:46.852Z,13.93
2022-10-30T17:55:37.182Z,16.42
2022-10-30T17:58:04.343Z,15.85
2022-10-30T18:00:31.781Z,14.35
2022-10-30T18:02:59.321Z,14.57
2022-10-30T18:05:30.260Z,13.10
2022-10-30T18:07:57.514Z,13.05
2022-10-30T18:10:25.027Z,12.73
2022-10-30T18:12:52.270Z,11.40
2022-10-30T18:15:39.298Z,13.13
2022-10-30T18:18:06.715Z,12.82
2022-10-30T18:20:34.505Z,13.75
2022-10-30T18:23:02.219Z,13.13
2022-10-30T18:25:36.303Z,12.63
2022-10-30T18:28:03.891Z,14.07
2022-10-30T18:30:31.344Z,14.73
2022-10-30T18:32:59.234Z,13.60
2022-10-30T18:35:30.417Z,13.65
2022-10-30T18:37:58.758Z,13.23
2022-10-30T18:40:28.383Z,12.60
2022-10-30T18:42:55.974Z,13.63
2022-10-30T18:45:36.166Z,12.00
2022-10-30T18:48:04.385Z,11.38
2022-10-30T18:50:32.317Z,11.95
2022-10-30T18:53:01.699Z,11.52
2022-10-30T18:55:40.606Z,11.13
2022-10-30T18:58:09.364Z,11.50
2022-10-30T19:00:58.298Z,12.63
2022-10-30T19:03:26.987Z,12.00
2022-10-30T19:05:54.482Z,11.68
2022-10-30T19:08:21.741Z,11.13
2022-10-30T19:10:49.359Z,11.82
2022-10-30T19:13:22.170Z,11.90
2022-10-30T19:15:59.032Z,11.52
2022-10-30T19:18:28.906Z,10.93
2022-10-30T19:21:05.826Z,13.35
2022-10-30T19:23:34.420Z,12.23
2022-10-30T19:26:01.921Z,11.90
2022-10-30T19:28:30.898Z,11.35
2022-10-30T19:30:58.422Z,12.52
2022-10-30T19:33:25.853Z,12.75
2022-10-30T19:36:01.059Z,13.65
2022-10-30T19:38:29.207Z,13.05
2022-10-30T19:40:56.935Z,13.68
2022-10-30T19:43:24.886Z,15.18
2022-10-30T19:45:59.384Z,14.43
2022-10-30T19:48:55.965Z,15.68
2022-10-30T19:51:14.080Z,16.25
2022-10-30T19:53:42.380Z,19.70
2022-10-30T19:56:15.369Z,19.55
2022-10-30T19:58:42.633Z,16.05
2022-10-30T20:01:13.530Z,17.30
2022-10-30T20:03:40.817Z,19.20
2022-10-30T20:06:14.555Z,17.48
2022-10-30T20:08:42.449Z,21.55
2022-10-30T20:11:09.911Z,17.58
2022-10-30T20:13:37.552Z,16.45
2022-10-30T20:16:06.011Z,16.77
2022-10-30T20:18:36.318Z,15.25
2022-10-30T20:21:11.584Z,16.83
2022-10-30T20:23:40.504Z,17.48
2022-10-30T20:26:21.757Z,15.70
2022-10-30T20:28:49.628Z,16.15
2022-10-30T20:31:17.053Z,15.95
2022-10-30T20:33:44.495Z,15.27
2022-10-30T20:36:13.914Z,15.32
2022-10-30T20:38:41.161Z,18.58
2022-10-30T20:41:24.285Z,17.30
2022-10-30T20:43:52.307Z,14.82
2022-10-30T20:46:21.250Z,16.85
2022-10-30T20:48:48.863Z,17.73
2022-10-30T20:51:17.789Z,15.27
2022-10-30T20:53:45.011Z,15.70
2022-10-30T20:56:12.329Z,19.75
2022-10-30T20:58:40.425Z,15.85
2022-10-30T21:01:08.061Z,20.10
2022-10-30T21:03:35.500Z,16.92
2022-10-30T21:06:02.832Z,19.27
2022-10-30T21:08:32.019Z,17.33
2022-10-30T21:11:05.536Z,15.77
2022-10-30T21:13:36.525Z,19.38
2022-10-30T21:16:08.305Z,15.50
2022-10-30T21:18:35.904Z,15.05
2022-10-30T21:21:06.893Z,15.90
2022-10-30T21:23:34.466Z,27.23
2022-10-30T21:26:04.991Z,18.20
2022-10-30T21:28:32.489Z,18.75
2022-10-30T21:31:06.024Z,16.15
2022-10-30T21:33:35.538Z,15.68
2022-10-30T21:36:15.989Z,15.77
2022-10-30T21:38:44.776Z,15.30
2022-10-30T21:41:21.825Z,15.43
2022-10-30T21:43:56.092Z,15.57
2022-10-30T21:46:28.257Z,16.35
2022-10-30T21:48:56.632Z,20.67
2022-10-30T21:51:27.079Z,20.10
2022-10-30T21:53:56.232Z,23.05
2022-10-30T21:56:29.966Z,16.13
2022-10-30T21:59:04.794Z,14.35
2022-10-30T22:01:37.449Z,14.02
2022-10-30T22:04:07.757Z,12.95
2022-10-30T22:06:41.308Z,13.10
2022-10-30T22:09:09.833Z,14.40
2022-10-30T22:11:37.785Z,14.43
2022-10-30T22:14:06.361Z,13.00
2022-10-30T22:16:37.494Z,12.48
2022-10-30T22:19:08.398Z,12.93
2022-10-30T22:21:35.913Z,12.73
2022-10-30T22:24:04.322Z,10.98
2022-10-30T22:26:31.953Z,12.25
2022-10-30T22:29:00.730Z,11.93
2022-10-30T22:31:30.629Z,11.18
2022-10-30T22:34:00.886Z,11.57
2022-10-30T22:36:31.588Z,11.25
2022-10-30T22:39:13.473Z,10.05
2022-10-30T22:41:42.232Z,10.60
2022-10-30T22:44:17.351Z,9.98
2022-10-30T22:46:45.513Z,10.77
2022-10-30T22:49:12.817Z,12.88
2022-10-30T22:51:40.507Z,12.80
2022-10-30T22:54:12.787Z,12.82
2022-10-30T22:56:41.363Z,15.70
2022-10-30T22:59:13.412Z,15.00
2022-10-30T23:01:42.249Z,15.63
2022-10-30T23:04:14.125Z,16.50
2022-10-30T23:06:42.455Z,17.48
2022-10-30T23:09:18.751Z,14.27
2022-10-30T23:11:46.215Z,15.05
2022-10-30T23:14:15.335Z,14.23
2022-10-30T23:16:42.675Z,13.88
2022-10-30T23:19:11.509Z,14.25
2022-10-30T23:21:39.067Z,12.73
2022-10-30T23:24:07.035Z,15.07
2022-10-30T23:26:35.803Z,12.82
2022-10-30T23:29:03.980Z,13.05
2022-10-30T23:31:38.618Z,14.48
2022-10-30T23:34:11.333Z,12.02
2022-10-30T23:36:39.501Z,12.20
2022-10-30T23:39:13.159Z,13.60
2022-10-30T23:41:40.663Z,15.10
2022-10-30T23:44:13.412Z,12.77
2022-10-30T23:46:41.008Z,12.02
2022-10-30T23:49:08.421Z,12.15
2022-10-30T23:51:35.693Z,12.35
2022-10-30T23:54:03.111Z,12.98
2022-10-30T23:56:30.322Z,12.32
2022-10-30T23:58:58.295Z,11.20
